createdAt,value
2022-08-03T00:00:27.482Z,20.70
2022-08-03T00:02:54.438Z,20.70
2022-08-03T00:05:21.464Z,20.70
2022-08-03T00:07:48.473Z,20.60
2022-08-03T00:10:16.521Z,20.60
2022-08-03T00:12:43.472Z,20.60
2022-08-03T00:15:15.104Z,20.60
2022-08-03T00:17:52.360Z,20.70
2022-08-03T00:20:20.083Z,20.70
2022-08-03T00:22:47.015Z,20.60
2022-08-03T00:25:14.076Z,20.60
2022-08-03T00:27:41.054Z,20.60
2022-08-03T00:30:08.314Z,20.50
2022-08-03T00:32:35.243Z,20.40
2022-08-03T00:35:03.160Z,20.40
2022-08-03T00:37:41.007Z,20.40
2022-08-03T00:40:13.639Z,20.30
2022-08-03T00:42:47.734Z,20.30
2022-08-03T00:45:14.792Z,20.20
2022-08-03T00:47:41.758Z,20.20
2022-08-03T00:50:09.018Z,20.20
2022-08-03T00:52:35.927Z,20.20
2022-08-03T00:55:03.715Z,20.20
2022-08-03T00:57:30.889Z,20.10
2022-08-03T01:00:00.017Z,20.10
2022-08-03T01:02:28.468Z,20.10
2022-08-03T01:04:56.098Z,20.20
2022-08-03T01:07:40.835Z,20.20
2022-08-03T01:10:24.596Z,20.20
2022-08-03T01:14:00.922Z,20.10
2022-08-03T01:16:35.873Z,20.00
2022-08-03T01:19:31.170Z,20.00
2022-08-03T01:21:58.116Z,20.00
2022-08-03T01:24:50.817Z,20.00
2022-08-03T01:27:31.653Z,19.90
2022-08-03T01:30:00.628Z,19.90
2022-08-03T01:33:00.861Z,19.90
2022-08-03T01:35:38.702Z,19.80
2022-08-03T01:38:13.796Z,19.70
2022-08-03T01:40:41.639Z,19.70
2022-08-03T01:43:09.331Z,19.70
2022-08-03T01:45:36.454Z,19.70
2022-08-03T01:48:03.592Z,19.70
2022-08-03T01:50:31.228Z,19.70
2022-08-03T01:52:58.335Z,19.70
2022-08-03T01:55:27.464Z,19.70
2022-08-03T01:58:05.351Z,19.70
2022-08-03T02:00:35.315Z,19.60
2022-08-03T02:03:02.167Z,19.70
2022-08-03T02:05:29.157Z,19.70
2022-08-03T02:07:56.049Z,19.60
2022-08-03T02:10:34.831Z,19.60
2022-08-03T02:13:03.488Z,19.50
2022-08-03T02:15:30.534Z,19.60
2022-08-03T02:17:57.775Z,19.50
2022-08-03T02:20:24.771Z,19.40
2022-08-03T02:22:51.715Z,19.40
2022-08-03T02:25:18.610Z,19.40
2022-08-03T02:27:53.216Z,19.50
2022-08-03T02:30:20.787Z,19.50
2022-08-03T02:32:54.031Z,19.40
2022-08-03T02:35:21.127Z,19.40
2022-08-03T02:37:50.783Z,19.50
2022-08-03T02:40:19.325Z,19.50
2022-08-03T02:42:46.690Z,19.40
2022-08-03T02:45:14.059Z,19.50
2022-08-03T02:47:54.495Z,19.60
2022-08-03T02:50:22.847Z,19.60
2022-08-03T02:52:50.047Z,19.60
2022-08-03T02:55:16.971Z,19.70
2022-08-03T02:57:43.911Z,19.70
2022-08-03T03:00:11.287Z,19.80
2022-08-03T03:02:38.232Z,19.80
2022-08-03T03:05:52.563Z,19.80
2022-08-03T03:07:53.316Z,19.80
2022-08-03T03:10:23.058Z,19.80
2022-08-03T03:12:55.486Z,19.80
2022-08-03T03:15:23.679Z,19.90
2022-08-03T03:17:50.578Z,20.00
2022-08-03T03:20:29.306Z,19.90
2022-08-03T03:22:58.877Z,19.90
2022-08-03T03:25:25.791Z,19.80
2022-08-03T03:27:52.743Z,19.90
2022-08-03T03:30:19.696Z,19.90
2022-08-03T03:32:46.634Z,19.90
2022-08-03T03:35:14.240Z,19.90
2022-08-03T03:37:41.146Z,19.80
2022-08-03T03:40:09.133Z,19.80
2022-08-03T03:42:36.095Z,19.80
2022-08-03T03:45:09.704Z,19.80
2022-08-03T03:47:36.715Z,19.70
2022-08-03T03:50:04.637Z,19.80
2022-08-03T03:52:32.350Z,19.80
2022-08-03T03:55:01.232Z,19.70
2022-08-03T03:57:29.432Z,19.80
2022-08-03T03:59:56.479Z,19.90
2022-08-03T04:02:23.372Z,19.90
2022-08-03T04:05:08.842Z,19.90
2022-08-03T04:08:24.797Z,19.90
2022-08-03T04:11:15.286Z,19.80
2022-08-03T04:14:03.327Z,19.70
2022-08-03T04:16:35.518Z,19.60
2022-08-03T04:19:08.200Z,19.70
2022-08-03T04:21:36.175Z,19.70
2022-08-03T04:24:04.287Z,19.80
2022-08-03T04:26:33.090Z,19.80
2022-08-03T04:29:00.147Z,19.90
2022-08-03T04:31:27.170Z,19.90
2022-08-03T04:33:54.069Z,19.80
2022-08-03T04:36:22.895Z,19.80
2022-08-03T04:39:03.860Z,19.80
2022-08-03T04:41:30.997Z,19.80
2022-08-03T04:44:00.303Z,19.90
2022-08-03T04:46:32.115Z,19.90
2022-08-03T04:48:59.253Z,19.90
2022-08-03T04:51:26.354Z,19.90
2022-08-03T04:53:53.304Z,19.90
2022-08-03T04:56:20.244Z,19.90
2022-08-03T04:58:47.136Z,19.90
2022-08-03T05:01:14.226Z,19.90
2022-08-03T05:03:41.136Z,19.80
2022-08-03T05:06:11.067Z,19.90
2022-08-03T05:08:46.390Z,19.80
2022-08-03T05:11:16.446Z,19.90
2022-08-03T05:13:44.191Z,19.90
2022-08-03T05:16:11.945Z,19.90
2022-08-03T05:18:38.888Z,19.90
2022-08-03T05:21:05.851Z,19.90
2022-08-03T05:23:32.769Z,19.80
2022-08-03T05:25:59.879Z,19.80
2022-08-03T05:28:26.754Z,19.80
2022-08-03T05:30:53.832Z,19.90
2022-08-03T05:33:20.777Z,19.90
2022-08-03T05:36:02.561Z,19.90
2022-08-03T05:38:34.272Z,19.90
2022-08-03T05:41:22.326Z,19.90
2022-08-03T05:43:50.633Z,20.00
2022-08-03T05:46:17.528Z,20.10
2022-08-03T05:48:44.450Z,20.10
2022-08-03T05:51:12.135Z,20.10
2022-08-03T05:53:40.185Z,20.10
2022-08-03T05:56:14.203Z,20.10
2022-08-03T05:58:46.077Z,20.10
2022-08-03T06:01:13.237Z,20.20
2022-08-03T06:03:40.306Z,20.20
2022-08-03T06:06:07.236Z,20.20
2022-08-03T06:08:34.907Z,20.30
2022-08-03T06:11:01.810Z,20.30
2022-08-03T06:13:28.747Z,20.30
2022-08-03T06:15:55.620Z,20.40
2022-08-03T06:18:24.524Z,20.40
2022-08-03T06:20:52.450Z,20.40
2022-08-03T06:23:19.607Z,20.50
2022-08-03T06:25:46.868Z,20.50
2022-08-03T06:28:51.127Z,20.50
2022-08-03T06:31:06.517Z,20.60
2022-08-03T06:34:30.213Z,20.60
2022-08-03T06:36:20.656Z,20.60
2022-08-03T06:38:47.546Z,20.60
2022-08-03T06:41:14.717Z,20.70
2022-08-03T06:44:02.946Z,20.70
2022-08-03T06:46:29.371Z,20.80
2022-08-03T06:48:56.679Z,20.80
2022-08-03T06:52:37.097Z,20.90
2022-08-03T06:54:11.002Z,20.90
2022-08-03T06:56:38.045Z,21.00
2022-08-03T06:59:05.219Z,21.00
2022-08-03T07:01:32.213Z,21.00
2022-08-03T07:04:00.566Z,21.00
2022-08-03T07:06:27.474Z,21.10
2022-08-03T07:08:58.996Z,21.00
2022-08-03T07:11:26.578Z,21.10
2022-08-03T07:13:53.447Z,21.10
2022-08-03T07:16:20.555Z,21.10
2022-08-03T07:18:47.519Z,21.20
2022-08-03T07:21:16.150Z,21.20
2022-08-03T07:23:43.059Z,21.20
2022-08-03T07:26:09.952Z,21.20
2022-08-03T07:28:37.624Z,21.20
2022-08-03T07:31:04.572Z,21.20
2022-08-03T07:33:31.595Z,21.30
2022-08-03T07:35:58.495Z,21.30
2022-08-03T07:38:25.359Z,21.40
2022-08-03T07:40:52.379Z,21.40
2022-08-03T07:43:19.371Z,21.50
2022-08-03T07:45:46.308Z,21.40
2022-08-03T07:48:13.351Z,21.40
2022-08-03T07:50:40.813Z,21.50
2022-08-03T07:53:07.791Z,21.60
2022-08-03T07:55:35.282Z,21.50
2022-08-03T07:58:04.275Z,21.50
2022-08-03T08:00:31.340Z,21.50
2022-08-03T08:02:58.387Z,21.60
2022-08-03T08:05:25.616Z,21.70
2022-08-03T08:07:52.610Z,21.80
2022-08-03T08:10:19.869Z,21.70
2022-08-03T08:12:46.988Z,21.80
2022-08-03T08:15:13.889Z,21.90
2022-08-03T08:17:44.550Z,21.80
2022-08-03T08:20:12.774Z,21.90
2022-08-03T08:22:39.699Z,21.90
2022-08-03T08:25:07.738Z,21.90
2022-08-03T08:28:22.475Z,22.00
2022-08-03T08:30:24.278Z,22.00
2022-08-03T08:32:51.791Z,22.10
2022-08-03T08:35:19.198Z,22.20
2022-08-03T08:37:50.763Z,22.20
2022-08-03T08:40:22.902Z,22.30
2022-08-03T08:42:58.906Z,22.30
2022-08-03T08:45:26.352Z,22.40
2022-08-03T08:47:56.930Z,22.50
2022-08-03T08:50:28.364Z,22.50
2022-08-03T08:52:55.410Z,22.50
2022-08-03T08:55:23.025Z,22.50
2022-08-03T08:57:52.968Z,22.60
2022-08-03T09:00:19.934Z,22.60
2022-08-03T09:02:46.977Z,22.70
2022-08-03T09:05:16.551Z,22.80
2022-08-03T09:07:43.794Z,22.80
2022-08-03T09:10:13.726Z,22.90
2022-08-03T09:12:45.212Z,23.00
2022-08-03T09:15:27.257Z,23.10
2022-08-03T09:17:55.506Z,23.10
2022-08-03T09:20:23.469Z,23.10
2022-08-03T09:22:54.580Z,23.20
2022-08-03T09:25:36.833Z,23.20
2022-08-03T09:28:07.719Z,23.30
2022-08-03T09:30:35.375Z,23.30
2022-08-03T09:33:03.891Z,23.30
2022-08-03T09:35:53.166Z,23.30
2022-08-03T09:38:19.358Z,23.30
2022-08-03T09:40:46.404Z,23.30
2022-08-03T09:43:14.075Z,23.40
2022-08-03T09:45:41.431Z,23.40
2022-08-03T09:48:31.840Z,23.40
2022-08-03T09:51:13.453Z,23.40
2022-08-03T09:53:58.628Z,23.40
2022-08-03T09:56:41.827Z,23.60
2022-08-03T09:59:09.173Z,23.50
2022-08-03T10:01:36.391Z,23.50
2022-08-03T10:04:05.218Z,23.50
2022-08-03T10:06:32.551Z,23.50
2022-08-03T10:09:14.450Z,23.50
2022-08-03T10:11:42.525Z,23.60
2022-08-03T10:14:19.321Z,23.70
2022-08-03T10:16:46.954Z,23.60
2022-08-03T10:19:15.150Z,23.60
2022-08-03T10:21:55.209Z,23.70
2022-08-03T10:24:26.246Z,23.70
2022-08-03T10:26:53.983Z,23.80
2022-08-03T10:29:24.773Z,23.80
2022-08-03T10:31:54.488Z,23.80
2022-08-03T10:34:27.023Z,24.00
2022-08-03T10:36:57.438Z,24.10
2022-08-03T10:39:24.902Z,24.30
2022-08-03T10:41:51.838Z,24.40
2022-08-03T10:44:21.354Z,24.50
2022-08-03T10:46:48.887Z,24.50
2022-08-03T10:49:16.872Z,24.60
2022-08-03T10:52:00.591Z,24.60
2022-08-03T10:55:07.309Z,24.60
2022-08-03T10:57:45.779Z,24.70
2022-08-03T11:00:15.939Z,24.80
2022-08-03T11:03:08.862Z,24.80
2022-08-03T11:05:40.981Z,24.90
2022-08-03T11:08:25.937Z,24.90
2022-08-03T11:10:54.817Z,25.00
2022-08-03T11:13:23.700Z,25.10
2022-08-03T11:15:52.651Z,25.20
2022-08-03T11:18:19.685Z,25.30
2022-08-03T11:20:50.576Z,25.40
2022-08-03T11:23:19.227Z,25.30
2022-08-03T11:26:18.899Z,25.30
2022-08-03T11:28:46.663Z,25.30
2022-08-03T11:31:48.127Z,25.20
2022-08-03T11:34:10.923Z,25.10
2022-08-03T11:37:15.168Z,25.10
2022-08-03T11:39:46.623Z,25.10
2022-08-03T11:42:22.585Z,25.20
2022-08-03T11:44:50.410Z,25.30
2022-08-03T11:47:18.267Z,25.40
2022-08-03T11:49:48.780Z,25.50
2022-08-03T11:52:16.654Z,25.60
2022-08-03T11:54:43.781Z,25.70
2022-08-03T11:57:11.013Z,25.80
2022-08-03T11:59:38.765Z,25.90
2022-08-03T12:02:13.370Z,25.90
2022-08-03T12:05:02.804Z,25.90
2022-08-03T12:08:04.780Z,25.90
2022-08-03T12:10:17.404Z,26.00
2022-08-03T12:12:46.749Z,26.00
2022-08-03T12:15:13.932Z,26.00
2022-08-03T12:17:41.781Z,26.00
2022-08-03T12:20:10.077Z,26.10
2022-08-03T12:22:40.683Z,26.20
2022-08-03T12:25:08.491Z,26.40
2022-08-03T12:27:35.728Z,26.40
2022-08-03T12:30:03.014Z,26.30
2022-08-03T12:32:30.071Z,26.30
2022-08-03T12:35:05.929Z,26.40
2022-08-03T12:37:33.344Z,26.60
2022-08-03T12:40:10.206Z,26.80
2022-08-03T12:42:39.360Z,26.90
2022-08-03T12:45:27.370Z,27.00
2022-08-03T12:47:55.996Z,26.90
2022-08-03T12:50:36.282Z,27.00
2022-08-03T12:53:05.603Z,27.10
2022-08-03T12:55:57.378Z,27.20
2022-08-03T12:58:35.183Z,27.40
2022-08-03T13:01:09.965Z,27.50
2022-08-03T13:03:45.637Z,27.40
2022-08-03T13:06:21.177Z,27.40
2022-08-03T13:08:48.430Z,27.50
2022-08-03T13:11:53.469Z,27.60
2022-08-03T13:14:16.702Z,27.60
2022-08-03T13:16:47.348Z,27.70
2022-08-03T13:19:15.572Z,27.60
2022-08-03T13:22:01.760Z,27.60
2022-08-03T13:24:31.571Z,27.60
2022-08-03T13:26:59.502Z,27.50
2022-08-03T13:29:26.488Z,27.60
2022-08-03T13:31:53.477Z,27.60
2022-08-03T13:34:23.439Z,27.80
2022-08-03T13:37:10.202Z,27.80
2022-08-03T13:39:59.800Z,27.80
2022-08-03T13:42:24.742Z,27.80
2022-08-03T13:44:51.645Z,27.80
2022-08-03T13:47:19.958Z,27.80
2022-08-03T13:49:59.678Z,27.90
2022-08-03T13:52:28.295Z,28.00
2022-08-03T13:54:55.289Z,28.00
2022-08-03T13:58:05.418Z,27.90
2022-08-03T14:00:09.855Z,28.10
2022-08-03T14:02:37.211Z,28.20
2022-08-03T14:05:04.631Z,28.10
2022-08-03T14:07:31.596Z,28.10
2022-08-03T14:09:58.543Z,28.10
2022-08-03T14:12:25.674Z,28.30
2022-08-03T14:14:52.603Z,28.30
2022-08-03T14:17:23.084Z,28.30
2022-08-03T14:19:53.475Z,28.30
2022-08-03T14:22:21.393Z,28.30
2022-08-03T14:24:49.173Z,28.30
2022-08-03T14:27:16.723Z,28.30
2022-08-03T14:29:43.621Z,28.30
2022-08-03T14:32:13.513Z,28.40
2022-08-03T14:34:41.027Z,28.50
2022-08-03T14:37:08.248Z,28.40
2022-08-03T14:42:22.429Z,28.30
2022-08-03T14:44:49.869Z,28.20
2022-08-03T14:47:16.786Z,28.30
2022-08-03T14:50:38.327Z,28.30
2022-08-03T14:52:31.209Z,28.30
2022-08-03T14:54:58.510Z,28.40
2022-08-03T14:57:25.679Z,28.40
2022-08-03T14:59:55.798Z,28.30
2022-08-03T15:02:26.313Z,28.30
2022-08-03T15:04:53.307Z,28.30
2022-08-03T15:07:20.982Z,28.30
2022-08-03T15:09:48.135Z,28.40
2022-08-03T15:12:15.046Z,28.50
2022-08-03T15:14:42.021Z,28.40
2022-08-03T15:17:08.911Z,28.30
2022-08-03T15:20:01.682Z,28.30
2022-08-03T15:22:25.146Z,28.40
2022-08-03T15:25:03.667Z,28.40
2022-08-03T15:27:30.547Z,28.40
2022-08-03T15:30:06.831Z,28.50
2022-08-03T15:32:37.197Z,28.50
2022-08-03T15:35:04.311Z,28.40
2022-08-03T15:37:31.225Z,28.50
2022-08-03T15:40:00.314Z,28.50
2022-08-03T15:42:31.267Z,28.50
2022-08-03T15:44:58.228Z,28.50
2022-08-03T15:47:25.392Z,28.40
2022-08-03T15:49:52.462Z,28.30
2022-08-03T15:52:19.344Z,28.30
2022-08-03T15:54:46.215Z,28.40
2022-08-03T15:57:13.267Z,28.30
2022-08-03T15:59:40.350Z,28.30
2022-08-03T16:02:07.438Z,28.30
2022-08-03T16:04:34.425Z,28.30
2022-08-03T16:07:01.355Z,28.30
2022-08-03T16:09:42.464Z,28.30
2022-08-03T16:12:14.548Z,28.40
2022-08-03T16:14:53.479Z,28.30
2022-08-03T16:17:21.942Z,28.30
2022-08-03T16:19:49.186Z,28.50
2022-08-03T16:22:17.468Z,28.60
2022-08-03T16:24:47.118Z,28.50
2022-08-03T16:27:56.673Z,28.40
2022-08-03T16:30:01.586Z,28.40
2022-08-03T16:32:28.817Z,28.40
2022-08-03T16:34:55.833Z,28.60
2022-08-03T16:37:38.161Z,28.60
2022-08-03T16:40:08.775Z,28.80
2022-08-03T16:42:44.853Z,28.70
2022-08-03T16:45:11.817Z,28.60
2022-08-03T16:47:38.815Z,28.50
2022-08-03T16:50:15.449Z,28.50
2022-08-03T16:52:47.376Z,28.50
2022-08-03T16:55:18.280Z,28.50
2022-08-03T16:57:58.747Z,28.70
2022-08-03T17:00:33.764Z,29.30
2022-08-03T17:03:04.068Z,29.60
2022-08-03T17:05:43.695Z,29.70
2022-08-03T17:08:16.633Z,29.70
2022-08-03T17:10:53.489Z,29.60
2022-08-03T17:13:22.572Z,29.30
2022-08-03T17:15:57.776Z,29.20
2022-08-03T17:18:34.025Z,29.20
2022-08-03T17:21:05.935Z,29.20
2022-08-03T17:23:34.379Z,29.40
2022-08-03T17:26:04.190Z,29.60
2022-08-03T17:28:50.873Z,29.80
2022-08-03T17:31:23.448Z,30.00
2022-08-03T17:33:57.978Z,30.30
2022-08-03T17:36:47.626Z,30.20
2022-08-03T17:39:23.576Z,29.80
2022-08-03T17:42:00.798Z,29.50
2022-08-03T17:44:33.045Z,29.80
2022-08-03T17:47:06.549Z,29.80
2022-08-03T17:49:40.146Z,30.00
2022-08-03T17:52:27.349Z,29.90
2022-08-03T17:55:57.482Z,29.60
2022-08-03T17:58:02.709Z,29.30
2022-08-03T18:00:51.547Z,29.20
2022-08-03T18:03:29.527Z,29.30
2022-08-03T18:06:11.943Z,29.10
2022-08-03T18:08:45.442Z,29.00
2022-08-03T18:11:14.790Z,28.80
2022-08-03T18:13:53.506Z,28.60
2022-08-03T18:16:37.741Z,28.50
2022-08-03T18:19:09.429Z,28.40
2022-08-03T18:24:28.291Z,28.00
2022-08-03T18:26:56.977Z,27.90
2022-08-03T18:29:24.177Z,27.70
2022-08-03T18:32:03.479Z,27.80
2022-08-03T18:34:32.649Z,27.70
2022-08-03T18:37:01.072Z,27.60
2022-08-03T18:39:35.999Z,27.60
2022-08-03T18:42:19.275Z,27.40
2022-08-03T18:44:54.181Z,27.40
2022-08-03T18:47:52.371Z,27.40
2022-08-03T18:50:22.811Z,27.00
2022-08-03T18:53:15.671Z,27.00
2022-08-03T18:56:01.457Z,26.80
2022-08-03T18:58:35.672Z,26.80
2022-08-03T19:02:00.793Z,26.60
2022-08-03T19:04:14.610Z,26.60
2022-08-03T19:06:45.925Z,26.50
2022-08-03T19:09:33.434Z,26.40
2022-08-03T19:12:13.273Z,26.40
2022-08-03T19:15:12.967Z,26.40
2022-08-03T19:17:52.629Z,26.50
2022-08-03T19:20:25.511Z,26.40
2022-08-03T19:22:53.576Z,26.40
2022-08-03T19:25:20.530Z,26.30
2022-08-03T19:28:02.864Z,26.30
2022-08-03T19:33:23.380Z,26.30
2022-08-03T19:35:55.322Z,26.20
2022-08-03T19:38:27.407Z,26.20
2022-08-03T19:40:57.979Z,26.20
2022-08-03T19:43:32.907Z,26.00
2022-08-03T19:46:16.212Z,25.90
2022-08-03T19:48:43.802Z,25.90
2022-08-03T19:51:12.124Z,25.90
2022-08-03T19:53:45.025Z,25.80
2022-08-03T19:56:12.896Z,25.80
2022-08-03T19:58:40.667Z,25.80
2022-08-03T20:01:19.577Z,25.70
2022-08-03T20:03:48.945Z,25.70
2022-08-03T20:06:17.184Z,25.70
2022-08-03T20:08:44.191Z,25.60
2022-08-03T20:11:11.693Z,25.60
2022-08-03T20:13:39.009Z,25.60
2022-08-03T20:16:06.328Z,25.50
2022-08-03T20:18:39.279Z,25.50
2022-08-03T20:24:03.427Z,25.40
2022-08-03T20:26:48.951Z,25.40
2022-08-03T20:29:23.278Z,25.30
2022-08-03T20:32:10.209Z,25.30
2022-08-03T20:34:38.279Z,25.20
2022-08-03T20:37:05.508Z,25.20
2022-08-03T20:39:36.402Z,25.10
2022-08-03T20:42:03.643Z,25.10
2022-08-03T20:44:31.311Z,25.00
2022-08-03T20:47:00.730Z,24.90
2022-08-03T20:49:27.935Z,24.80
2022-08-03T20:51:55.007Z,24.70
2022-08-03T20:54:29.341Z,24.70
2022-08-03T20:56:59.792Z,24.60
2022-08-03T20:59:47.106Z,24.50
2022-08-03T21:02:19.248Z,24.40
2022-08-03T21:04:55.604Z,24.30
2022-08-03T21:07:22.844Z,24.40
2022-08-03T21:09:55.958Z,24.40
2022-08-03T21:12:31.196Z,24.30
2022-08-03T21:13:04.328Z,28.20
2022-08-03T21:13:08.246Z,26.30
2022-08-03T21:13:09.655Z,25.50
2022-08-03T21:15:06.908Z,24.40
2022-08-03T21:17:42.365Z,24.40
2022-08-03T21:20:11.140Z,24.30
2022-08-03T21:22:38.768Z,24.30
2022-08-03T21:25:10.178Z,24.20
2022-08-03T21:27:37.185Z,24.20
2022-08-03T21:30:08.574Z,24.30
2022-08-03T21:32:36.329Z,24.20
2022-08-03T21:35:03.375Z,24.20
2022-08-03T21:37:30.547Z,24.20
2022-08-03T21:39:57.970Z,24.30
2022-08-03T21:42:24.929Z,24.30
2022-08-03T21:44:52.404Z,24.20
2022-08-03T21:47:21.061Z,24.20
2022-08-03T21:49:52.108Z,24.10
2022-08-03T21:52:39.764Z,24.00
2022-08-03T21:55:07.339Z,23.90
2022-08-03T21:57:34.661Z,24.00
2022-08-03T22:00:10.519Z,23.90
2022-08-03T22:02:45.722Z,24.00
2022-08-03T22:05:28.958Z,24.00
2022-08-03T22:08:08.377Z,23.90
2022-08-03T22:10:35.356Z,23.80
2022-08-03T22:13:02.324Z,23.80
2022-08-03T22:15:29.217Z,23.70
2022-08-03T22:17:57.179Z,23.70
2022-08-03T22:20:24.395Z,23.60
2022-08-03T22:22:55.722Z,23.60
2022-08-03T22:25:29.218Z,23.60
2022-08-03T22:27:57.165Z,23.60
2022-08-03T22:30:24.034Z,23.60
2022-08-03T22:32:52.021Z,23.60
2022-08-03T22:35:18.941Z,23.60
2022-08-03T22:37:46.103Z,23.50
2022-08-03T22:40:14.735Z,23.50
2022-08-03T22:42:43.035Z,23.50
2022-08-03T22:45:10.125Z,23.50
2022-08-03T22:47:57.018Z,23.50
2022-08-03T22:50:32.089Z,23.40
2022-08-03T22:53:00.811Z,23.40
2022-08-03T22:55:27.663Z,23.30
2022-08-03T22:57:55.630Z,23.30
2022-08-03T23:00:23.587Z,23.30
2022-08-03T23:02:50.534Z,23.30
2022-08-03T23:06:02.144Z,23.20
2022-08-03T23:08:13.916Z,23.10
2022-08-03T23:10:44.880Z,23.10
2022-08-03T23:13:14.046Z,23.20
2022-08-03T23:15:40.893Z,23.10
2022-08-03T23:18:07.771Z,23.00
2022-08-03T23:20:34.796Z,23.10
2022-08-03T23:23:05.081Z,23.10
2022-08-03T23:25:32.015Z,23.00
2022-08-03T23:28:05.559Z,23.00
2022-08-03T23:30:34.637Z,23.00
2022-08-03T23:33:01.466Z,22.90
2022-08-03T23:36:20.090Z,22.70
2022-08-03T23:38:39.467Z,22.60
2022-08-03T23:41:06.558Z,22.50
2022-08-03T23:43:51.326Z,22.20
2022-08-03T23:46:23.924Z,22.20
2022-08-03T23:48:51.151Z,22.30
2022-08-03T23:51:36.739Z,22.30
2022-08-03T23:54:09.119Z,22.20
2022-08-03T23:57:00.588Z,22.20
2022-08-03T23:59:35.877Z,22.20
